Time;durP1;ratioP1;P1;durP2;ratioP2;P2;SDS_P1;SDS_P2;PMS_P1;PMS_P2;Temp;Humidity;BMP_temperature;BMP_pressure;BME280_temperature;BME280_humidity;BME280_pressure;Samples;Min_cycle;Max_cycle;Signal;HPM_P1;HPM_P2
2024/02/26 00:02:22;;;;;;;;;;;10.10;55.60;;;;;;5078246;28;20019;-57
2024/02/26 00:04:51;;;;;;;;;;;10.10;55.40;;;;;;5079150;28;19964;-58
2024/02/26 00:07:19;;;;;;;;;;;10.00;55.40;;;;;;5079544;28;19931;-58
2024/02/26 00:09:47;;;;;;;;;;;10.00;55.40;;;;;;5078615;28;20437;-57
2024/02/26 00:12:15;;;;;;;;;;;9.90;55.40;;;;;;5058542;28;19936;-58
2024/02/26 00:14:45;;;;;;;;;;;9.90;55.40;;;;;;5083251;28;20335;-58
2024/02/26 00:17:13;;;;;;;;;;;9.90;55.40;;;;;;5065545;28;20344;-57
2024/02/26 00:19:42;;;;;;;;;;;9.80;55.40;;;;;;5084236;28;19928;-57
2024/02/26 00:22:11;;;;;;;;;;;9.80;55.40;;;;;;5069659;28;19940;-55
2024/02/26 00:24:40;;;;;;;;;;;9.80;55.40;;;;;;5082988;28;19954;-57
2024/02/26 00:27:08;;;;;;;;;;;9.70;55.30;;;;;;5076816;28;19968;-57
2024/02/26 00:29:37;;;;;;;;;;;9.70;55.30;;;;;;5077176;28;19939;-57
2024/02/26 00:32:06;;;;;;;;;;;9.60;55.30;;;;;;5077225;28;19954;-57
2024/02/26 00:34:34;;;;;;;;;;;9.60;55.30;;;;;;5080648;28;19993;-55
2024/02/26 00:37:03;;;;;;;;;;;9.50;55.30;;;;;;5079511;28;19932;-58
2024/02/26 00:39:31;;;;;;;;;;;9.50;55.20;;;;;;5086559;28;19928;-58
2024/02/26 00:42:00;;;;;;;;;;;9.40;55.30;;;;;;5084204;28;19950;-56
2024/02/26 00:44:28;;;;;;;;;;;9.40;55.40;;;;;;5075988;28;19971;-57
2024/02/26 00:46:56;;;;;;;;;;;9.40;55.60;;;;;;5084520;28;19927;-58
2024/02/26 00:49:24;;;;;;;;;;;9.30;55.50;;;;;;5085354;28;20091;-59
2024/02/26 00:51:52;;;;;;;;;;;9.30;55.60;;;;;;5068432;28;19928;-58
2024/02/26 00:54:22;;;;;;;;;;;9.30;55.60;;;;;;5075679;28;19927;-57
2024/02/26 00:56:50;;;;;;;;;;;9.40;55.80;;;;;;5081582;28;19938;-59
2024/02/26 00:59:18;;;;;;;;;;;9.40;55.70;;;;;;5076898;28;20033;-54
2024/02/26 01:01:46;;;;;;;;;;;9.50;56.40;;;;;;5080996;28;20019;-58
2024/02/26 01:04:14;;;;;;;;;;;9.50;55.70;;;;;;5081017;28;19928;-55
2024/02/26 01:06:42;;;;;;;;;;;9.50;55.60;;;;;;5071650;28;19997;-54
2024/02/26 01:09:10;;;;;;;;;;;9.50;55.60;;;;;;5080197;28;20394;-54
2024/02/26 01:11:40;;;;;;;;;;;9.60;55.50;;;;;;5083440;28;19935;-56
2024/02/26 01:14:08;;;;;;;;;;;9.60;55.40;;;;;;5078177;28;20006;-55
2024/02/26 01:16:36;;;;;;;;;;;9.50;55.40;;;;;;5076051;28;20018;-54
2024/02/26 01:19:04;;;;;;;;;;;9.60;55.80;;;;;;5079661;28;19928;-55
2024/02/26 01:21:33;;;;;;;;;;;9.50;55.40;;;;;;5075718;28;20001;-56
2024/02/26 01:24:01;;;;;;;;;;;9.50;55.40;;;;;;5077397;28;19932;-58
2024/02/26 01:26:29;;;;;;;;;;;9.60;55.50;;;;;;5079954;28;19928;-56
2024/02/26 01:28:59;;;;;;;;;;;9.60;55.40;;;;;;5082378;28;19934;-57
2024/02/26 01:31:27;;;;;;;;;;;9.60;55.70;;;;;;5076176;28;19932;-59
2024/02/26 01:33:55;;;;;;;;;;;9.60;55.40;;;;;;5080106;28;19935;-53
2024/02/26 01:36:24;;;;;;;;;;;9.60;55.50;;;;;;5084337;27;19978;-56
2024/02/26 01:38:52;;;;;;;;;;;9.60;55.30;;;;;;5084170;28;20392;-56
2024/02/26 01:41:20;;;;;;;;;;;9.60;55.30;;;;;;5079290;28;20444;-55
2024/02/26 01:43:48;;;;;;;;;;;9.60;55.30;;;;;;5079232;28;21874;-58
2024/02/26 01:46:18;;;;;;;;;;;9.60;55.30;;;;;;5086668;28;22297;-57
2024/02/26 01:48:47;;;;;;;;;;;9.60;55.30;;;;;;5084467;28;20475;-53
2024/02/26 01:51:17;;;;;;;;;;;9.60;55.30;;;;;;5085392;28;19940;-53
2024/02/26 01:53:45;;;;;;;;;;;9.70;55.40;;;;;;5076098;28;20458;-54
2024/02/26 01:56:14;;;;;;;;;;;9.70;55.40;;;;;;5085182;28;19928;-55
2024/02/26 01:58:42;;;;;;;;;;;9.80;55.40;;;;;;5083861;28;20669;-57
2024/02/26 02:01:10;;;;;;;;;;;9.80;55.30;;;;;;5084246;28;20322;-55
2024/02/26 02:03:42;;;;;;;;;;;9.90;55.30;;;;;;5077844;28;20393;-54
2024/02/26 02:06:11;;;;;;;;;;;9.90;55.20;;;;;;5083186;28;19927;-52
2024/02/26 02:08:39;;;;;;;;;;;10.00;55.30;;;;;;5078784;28;19928;-53
2024/02/26 02:11:08;;;;;;;;;;;10.10;55.30;;;;;;5081266;28;19928;-56
2024/02/26 02:13:36;;;;;;;;;;;10.20;55.20;;;;;;5062901;28;20538;-56
2024/02/26 02:16:05;;;;;;;;;;;10.20;55.00;;;;;;5081803;28;19970;-56
2024/02/26 02:18:34;;;;;;;;;;;10.30;55.00;;;;;;5080596;28;20304;-57
2024/02/26 02:21:04;;;;;;;;;;;10.40;55.10;;;;;;5083443;28;20405;-53
2024/02/26 02:23:32;;;;;;;;;;;10.40;55.10;;;;;;5078457;28;19924;-55
2024/02/26 02:26:00;;;;;;;;;;;10.50;54.80;;;;;;5086933;28;19927;-54
2024/02/26 02:28:28;;;;;;;;;;;10.50;54.50;;;;;;5080980;28;19981;-54
2024/02/26 02:30:57;;;;;;;;;;;10.60;54.50;;;;;;5078097;27;19940;-54
2024/02/26 02:33:26;;;;;;;;;;;10.60;54.10;;;;;;5082269;27;21464;-55
2024/02/26 02:35:55;;;;;;;;;;;10.70;54.20;;;;;;5087763;27;19932;-56
2024/02/26 02:38:25;;;;;;;;;;;10.70;54.10;;;;;;5085547;28;19924;-55
2024/02/26 02:40:54;;;;;;;;;;;10.70;54.20;;;;;;5087324;28;19935;-54
2024/02/26 02:43:22;;;;;;;;;;;10.60;54.20;;;;;;5078516;28;20026;-56
2024/02/26 02:45:50;;;;;;;;;;;10.60;54.10;;;;;;5073899;28;19932;-54
2024/02/26 02:48:18;;;;;;;;;;;10.60;54.70;;;;;;5083138;27;19932;-56
2024/02/26 02:50:46;;;;;;;;;;;10.50;54.00;;;;;;5082740;28;19981;-54
2024/02/26 02:53:16;;;;;;;;;;;10.40;53.80;;;;;;5083044;28;20022;-55
2024/02/26 02:55:45;;;;;;;;;;;10.30;54.00;;;;;;5081180;28;20377;-55
2024/02/26 02:58:13;;;;;;;;;;;10.20;54.10;;;;;;5087435;28;19934;-56
2024/02/26 03:00:41;;;;;;;;;;;10.20;54.00;;;;;;5073236;28;20487;-55
2024/02/26 03:03:09;;;;;;;;;;;10.20;54.20;;;;;;5083108;28;19959;-53
2024/02/26 03:05:38;;;;;;;;;;;10.20;54.30;;;;;;5089792;28;19924;-55
2024/02/26 03:08:06;;;;;;;;;;;10.20;54.40;;;;;;5064241;28;20451;-56
2024/02/26 03:10:34;;;;;;;;;;;10.20;54.80;;;;;;5078006;28;19950;-56
2024/02/26 03:13:04;;;;;;;;;;;10.20;54.20;;;;;;5079122;28;20619;-54
2024/02/26 03:15:32;;;;;;;;;;;10.30;54.70;;;;;;5072293;28;19928;-54
2024/02/26 03:18:00;;;;;;;;;;;10.30;54.30;;;;;;5085645;28;19928;-55
2024/02/26 03:20:29;;;;;;;;;;;10.30;54.30;;;;;;5085361;28;19931;-56
2024/02/26 03:22:57;;;;;;;;;;;10.30;54.30;;;;;;5078319;28;19928;-59
2024/02/26 03:25:25;;;;;;;;;;;10.30;54.20;;;;;;5072126;28;20461;-53
2024/02/26 03:27:53;;;;;;;;;;;10.30;54.10;;;;;;5082705;28;20022;-56
2024/02/26 03:30:22;;;;;;;;;;;10.20;54.00;;;;;;5061431;28;20333;-56
2024/02/26 03:32:51;;;;;;;;;;;10.10;53.90;;;;;;5083641;28;19935;-57
2024/02/26 03:35:19;;;;;;;;;;;9.90;54.20;;;;;;5085736;28;20317;-54
2024/02/26 03:37:47;;;;;;;;;;;9.80;53.90;;;;;;5081452;28;20027;-55
2024/02/26 03:40:15;;;;;;;;;;;9.60;53.80;;;;;;5084159;28;19936;-56
2024/02/26 03:42:43;;;;;;;;;;;9.50;53.90;;;;;;5072191;28;19939;-57
2024/02/26 03:45:11;;;;;;;;;;;9.30;54.00;;;;;;5085449;28;20398;-56
2024/02/26 03:47:41;;;;;;;;;;;9.20;54.10;;;;;;5080491;28;19932;-56
2024/02/26 03:50:09;;;;;;;;;;;9.10;54.20;;;;;;5076019;28;19932;-55
2024/02/26 03:52:37;;;;;;;;;;;9.00;54.20;;;;;;5079053;28;19928;-55
2024/02/26 03:55:06;;;;;;;;;;;9.00;54.40;;;;;;5081455;28;19955;-54
2024/02/26 03:57:34;;;;;;;;;;;8.90;54.40;;;;;;5069393;28;20231;-54
2024/02/26 04:00:02;;;;;;;;;;;8.80;54.40;;;;;;5081946;28;20671;-55
2024/02/26 04:02:37;;;;;;;;;;;8.80;54.40;;;;;;5077333;28;19932;-53
2024/02/26 04:05:10;;;;;;;;;;;8.80;54.60;;;;;;5085179;27;19932;-57
2024/02/26 04:07:38;;;;;;;;;;;8.70;54.50;;;;;;5081657;28;19935;-54
2024/02/26 04:10:09;;;;;;;;;;;8.70;54.50;;;;;;5069312;27;19939;-55
2024/02/26 04:12:39;;;;;;;;;;;8.60;54.50;;;;;;5082353;28;19997;-55
2024/02/26 04:15:07;;;;;;;;;;;8.60;54.60;;;;;;5068891;28;19932;-56
2024/02/26 04:17:35;;;;;;;;;;;8.50;54.50;;;;;;5082107;28;19928;-52
2024/02/26 04:20:05;;;;;;;;;;;8.50;54.60;;;;;;5085680;28;20306;-56
2024/02/26 04:22:34;;;;;;;;;;;8.50;54.60;;;;;;5060748;28;19927;-55
2024/02/26 04:25:02;;;;;;;;;;;8.40;54.70;;;;;;5078921;28;20302;-57
2024/02/26 04:27:31;;;;;;;;;;;8.40;54.70;;;;;;5075892;28;19932;-56
2024/02/26 04:29:59;;;;;;;;;;;8.40;54.80;;;;;;5075592;28;19924;-56
2024/02/26 04:32:27;;;;;;;;;;;8.40;54.90;;;;;;5080857;28;19935;-57
2024/02/26 04:34:56;;;;;;;;;;;8.40;54.90;;;;;;5067701;28;19924;-56
2024/02/26 04:37:24;;;;;;;;;;;8.40;54.90;;;;;;5063884;28;20022;-57
2024/02/26 04:39:53;;;;;;;;;;;8.50;54.90;;;;;;5081222;28;19932;-57
2024/02/26 04:42:21;;;;;;;;;;;8.50;55.30;;;;;;5081582;28;19951;-56
2024/02/26 04:44:49;;;;;;;;;;;8.50;55.00;;;;;;5078761;28;20362;-57
2024/02/26 04:47:17;;;;;;;;;;;8.60;55.00;;;;;;5078621;28;19932;-55
2024/02/26 04:49:46;;;;;;;;;;;8.60;55.00;;;;;;5070795;28;19923;-53
2024/02/26 04:52:13;;;;;;;;;;;8.60;55.00;;;;;;5079054;28;19928;-55
2024/02/26 04:54:41;;;;;;;;;;;8.60;55.00;;;;;;5076326;28;19939;-57
2024/02/26 04:57:10;;;;;;;;;;;8.70;55.00;;;;;;5078874;28;20098;-52
2024/02/26 04:59:40;;;;;;;;;;;8.70;55.00;;;;;;5077331;28;19927;-51
2024/02/26 05:02:09;;;;;;;;;;;8.70;55.00;;;;;;5083172;28;19931;-57
2024/02/26 05:04:38;;;;;;;;;;;8.70;55.00;;;;;;5072005;28;20043;-57
2024/02/26 05:07:06;;;;;;;;;;;8.70;55.50;;;;;;5082326;28;19928;-54
2024/02/26 05:09:34;;;;;;;;;;;8.70;54.90;;;;;;5064820;28;20023;-58
2024/02/26 05:12:02;;;;;;;;;;;8.70;54.90;;;;;;5079620;28;19943;-58
2024/02/26 05:14:32;;;;;;;;;;;8.70;54.80;;;;;;5083159;28;19928;-56
2024/02/26 05:17:00;;;;;;;;;;;8.60;54.80;;;;;;5059945;28;19986;-53
2024/02/26 05:19:28;;;;;;;;;;;8.60;54.80;;;;;;5063290;28;19930;-55
2024/02/26 05:21:56;;;;;;;;;;;8.60;54.90;;;;;;5081547;28;20525;-54
2024/02/26 05:24:25;;;;;;;;;;;8.60;55.00;;;;;;5088304;28;19934;-55
2024/02/26 05:26:54;;;;;;;;;;;8.60;55.00;;;;;;5090903;28;20032;-56
2024/02/26 05:29:22;;;;;;;;;;;8.60;55.00;;;;;;5070307;28;19927;-56
2024/02/26 05:31:54;;;;;;;;;;;8.60;55.00;;;;;;5079693;28;20019;-56
2024/02/26 05:34:22;;;;;;;;;;;8.60;54.80;;;;;;5062755;28;19932;-57
2024/02/26 05:36:51;;;;;;;;;;;8.50;54.80;;;;;;5091103;28;19931;-55
2024/02/26 05:39:19;;;;;;;;;;;8.50;54.80;;;;;;5068757;28;19985;-54
2024/02/26 05:41:49;;;;;;;;;;;8.50;54.90;;;;;;5079860;28;19977;-54
2024/02/26 05:44:17;;;;;;;;;;;8.50;54.90;;;;;;5082839;28;20397;-56
2024/02/26 05:46:46;;;;;;;;;;;8.50;54.90;;;;;;5081429;28;19928;-53
2024/02/26 05:49:15;;;;;;;;;;;8.40;54.90;;;;;;5083314;28;19929;-57
2024/02/26 05:51:44;;;;;;;;;;;8.50;54.90;;;;;;5077805;28;19936;-53
2024/02/26 05:54:12;;;;;;;;;;;8.50;55.00;;;;;;5079133;28;19928;-57
2024/02/26 05:56:40;;;;;;;;;;;8.50;55.00;;;;;;5081975;28;19927;-55
2024/02/26 05:59:08;;;;;;;;;;;8.50;55.00;;;;;;5080231;28;20265;-54
2024/02/26 06:01:36;;;;;;;;;;;8.50;54.90;;;;;;5079044;28;19948;-52
2024/02/26 06:04:05;;;;;;;;;;;8.50;54.90;;;;;;5055306;28;19944;-56
2024/02/26 06:06:35;;;;;;;;;;;8.50;54.90;;;;;;5082286;28;20344;-57
2024/02/26 06:09:11;;;;;;;;;;;8.50;55.00;;;;;;5077686;28;20006;-58
2024/02/26 06:11:39;;;;;;;;;;;8.60;55.10;;;;;;5063486;28;19935;-56
2024/02/26 06:14:08;;;;;;;;;;;8.70;55.20;;;;;;5078152;27;19928;-55
2024/02/26 06:16:36;;;;;;;;;;;8.90;55.70;;;;;;5076367;28;19936;-59
2024/02/26 06:19:04;;;;;;;;;;;8.90;55.10;;;;;;5076980;28;19928;-61
2024/02/26 06:21:34;;;;;;;;;;;9.20;55.20;;;;;;5074430;28;20329;-57
2024/02/26 06:24:03;;;;;;;;;;;9.40;55.60;;;;;;5069983;28;19935;-57
2024/02/26 06:26:33;;;;;;;;;;;9.50;55.00;;;;;;5078698;27;19931;-58
2024/02/26 06:29:01;;;;;;;;;;;9.70;55.00;;;;;;5079638;28;19992;-61
2024/02/26 06:31:29;;;;;;;;;;;9.80;54.90;;;;;;5063049;28;19928;-60
2024/02/26 06:33:57;;;;;;;;;;;9.90;55.00;;;;;;5072799;28;19976;-61
2024/02/26 06:36:26;;;;;;;;;;;10.00;54.80;;;;;;5077729;28;20014;-62
2024/02/26 06:38:55;;;;;;;;;;;10.00;54.80;;;;;;5080682;28;20281;-62
2024/02/26 06:41:27;;;;;;;;;;;10.00;54.70;;;;;;5081689;27;20041;-62
2024/02/26 06:43:55;;;;;;;;;;;10.10;54.70;;;;;;5076221;28;19940;-61
2024/02/26 06:46:23;;;;;;;;;;;10.10;54.70;;;;;;5087586;27;19924;-61
2024/02/26 06:48:52;;;;;;;;;;;10.20;54.80;;;;;;5079131;28;19924;-60
2024/02/26 06:51:23;;;;;;;;;;;10.20;54.70;;;;;;5082550;28;19959;-59
2024/02/26 06:53:51;;;;;;;;;;;10.30;54.80;;;;;;5072815;28;19923;-60
2024/02/26 06:56:21;;;;;;;;;;;10.30;54.70;;;;;;5080437;28;19936;-61
2024/02/26 06:58:49;;;;;;;;;;;10.40;54.80;;;;;;5058395;28;20607;-62
2024/02/26 07:01:17;;;;;;;;;;;10.50;54.80;;;;;;5078474;28;19981;-60
2024/02/26 07:03:45;;;;;;;;;;;10.60;54.80;;;;;;5076773;28;19928;-62
2024/02/26 07:06:13;;;;;;;;;;;10.70;54.80;;;;;;5085992;28;19932;-60
2024/02/26 07:08:42;;;;;;;;;;;10.90;54.80;;;;;;5082693;28;19936;-59
2024/02/26 07:11:11;;;;;;;;;;;11.00;54.70;;;;;;5061543;28;20035;-59
2024/02/26 07:13:40;;;;;;;;;;;11.10;54.70;;;;;;5081778;28;19928;-58
2024/02/26 07:16:10;;;;;;;;;;;11.20;54.60;;;;;;5080902;28;20022;-59
2024/02/26 07:18:38;;;;;;;;;;;11.40;54.70;;;;;;5080551;28;19935;-61
2024/02/26 07:21:06;;;;;;;;;;;11.50;54.50;;;;;;5083626;28;19928;-57
2024/02/26 07:23:35;;;;;;;;;;;11.60;54.50;;;;;;5080977;28;19928;-58
2024/02/26 07:26:03;;;;;;;;;;;11.70;54.30;;;;;;5077859;28;20419;-60
2024/02/26 07:28:31;;;;;;;;;;;11.80;54.40;;;;;;5079246;28;19989;-57
2024/02/26 07:31:00;;;;;;;;;;;12.00;54.30;;;;;;5083188;28;20044;-54
2024/02/26 07:33:28;;;;;;;;;;;12.10;54.20;;;;;;5086495;27;20020;-58
2024/02/26 07:35:57;;;;;;;;;;;12.30;53.90;;;;;;5073793;28;20094;-59
2024/02/26 07:38:25;;;;;;;;;;;12.40;53.70;;;;;;5087942;28;19955;-57
2024/02/26 07:41:09;;;;;;;;;;;12.60;53.80;;;;;;5073362;28;19924;-56
2024/02/26 07:43:37;;;;;;;;;;;12.80;53.80;;;;;;5080067;28;19924;-55
2024/02/26 07:46:07;;;;;;;;;;;12.90;53.80;;;;;;5074574;28;19939;-57
2024/02/26 07:48:35;;;;;;;;;;;13.10;53.70;;;;;;5077371;27;19978;-56
2024/02/26 07:51:04;;;;;;;;;;;13.20;53.40;;;;;;5074692;28;20030;-59
2024/02/26 07:53:32;;;;;;;;;;;13.40;53.50;;;;;;5082339;28;19987;-55
2024/02/26 07:56:00;;;;;;;;;;;13.60;53.40;;;;;;5073234;28;20337;-56
2024/02/26 07:58:27;;;;;;;;;;;13.70;53.40;;;;;;5081393;28;19932;-56
2024/02/26 08:00:55;;;;;;;;;;;13.90;53.20;;;;;;5083092;28;19936;-58
2024/02/26 08:03:25;;;;;;;;;;;14.00;53.00;;;;;;5078560;28;20005;-58
2024/02/26 08:05:53;;;;;;;;;;;14.10;52.80;;;;;;5079748;28;19928;-57
2024/02/26 08:08:21;;;;;;;;;;;14.10;52.40;;;;;;5083392;28;19924;-56
2024/02/26 08:10:49;;;;;;;;;;;14.20;52.40;;;;;;5082615;28;20357;-60
2024/02/26 08:13:18;;;;;;;;;;;14.20;52.50;;;;;;5080409;28;20370;-57
2024/02/26 08:15:46;;;;;;;;;;;14.20;52.20;;;;;;5068212;28;19928;-54
2024/02/26 08:18:14;;;;;;;;;;;14.40;52.50;;;;;;5081035;28;20019;-58
2024/02/26 08:20:43;;;;;;;;;;;14.50;52.80;;;;;;5081863;28;19932;-58
2024/02/26 08:23:12;;;;;;;;;;;15.20;53.50;;;;;;5080123;28;19943;-58
2024/02/26 08:25:39;;;;;;;;;;;16.00;53.70;;;;;;5085328;28;19970;-58
2024/02/26 08:28:07;;;;;;;;;;;16.50;52.30;;;;;;5074955;28;19935;-59
2024/02/26 08:30:35;;;;;;;;;;;16.80;51.70;;;;;;5078315;28;19928;-57
2024/02/26 08:33:04;;;;;;;;;;;16.90;51.80;;;;;;5077736;28;20425;-61
2024/02/26 08:35:33;;;;;;;;;;;17.50;52.30;;;;;;5088583;28;19938;-57
2024/02/26 08:38:02;;;;;;;;;;;18.40;52.40;;;;;;5082363;27;20219;-57
2024/02/26 08:40:30;;;;;;;;;;;19.20;52.20;;;;;;5089824;28;20393;-55
2024/02/26 08:42:59;;;;;;;;;;;20.20;51.90;;;;;;5088642;28;20022;-59
2024/02/26 08:45:27;;;;;;;;;;;21.40;51.50;;;;;;5086620;28;19931;-60
2024/02/26 08:47:58;;;;;;;;;;;22.50;50.50;;;;;;5076834;28;19931;-59
2024/02/26 08:50:27;;;;;;;;;;;23.40;48.70;;;;;;5088608;28;19928;-59
2024/02/26 08:52:55;;;;;;;;;;;24.00;47.50;;;;;;5074452;28;20043;-58
2024/02/26 08:55:25;;;;;;;;;;;24.60;47.00;;;;;;5089482;28;20317;-59
2024/02/26 08:57:53;;;;;;;;;;;25.30;47.10;;;;;;5080238;28;19928;-59
2024/02/26 09:00:21;;;;;;;;;;;25.70;46.10;;;;;;5090313;28;20022;-59
2024/02/26 09:02:49;;;;;;;;;;;25.80;45.90;;;;;;5081143;28;20005;-58
2024/02/26 09:05:18;;;;;;;;;;;25.50;45.30;;;;;;5073443;28;20016;-57
2024/02/26 09:07:47;;;;;;;;;;;24.80;44.80;;;;;;5082472;28;19928;-58
2024/02/26 09:10:15;;;;;;;;;;;24.40;45.50;;;;;;5067224;28;20029;-58
2024/02/26 09:12:44;;;;;;;;;;;23.90;45.80;;;;;;5080314;28;19928;-56
2024/02/26 09:15:13;;;;;;;;;;;23.20;45.60;;;;;;5086025;28;19939;-57
2024/02/26 09:17:41;;;;;;;;;;;22.70;46.30;;;;;;5084130;28;19947;-58
2024/02/26 09:20:10;;;;;;;;;;;22.50;47.10;;;;;;5066179;27;19932;-58
2024/02/26 09:22:38;;;;;;;;;;;22.90;47.80;;;;;;5087392;28;19928;-58
2024/02/26 09:25:07;;;;;;;;;;;23.20;47.50;;;;;;5081951;28;19928;-58
2024/02/26 09:27:35;;;;;;;;;;;24.00;47.30;;;;;;5082132;28;19963;-57
2024/02/26 09:30:08;;;;;;;;;;;24.60;45.50;;;;;;5080178;28;19967;-59
2024/02/26 09:32:37;;;;;;;;;;;24.90;44.40;;;;;;5084447;28;20361;-58
2024/02/26 09:35:05;;;;;;;;;;;25.10;43.80;;;;;;5063283;28;20351;-59
2024/02/26 09:37:36;;;;;;;;;;;24.90;43.40;;;;;;5085174;28;19940;-59
2024/02/26 09:40:05;;;;;;;;;;;24.90;44.20;;;;;;5081240;28;20061;-60
2024/02/26 09:42:35;;;;;;;;;;;25.10;44.10;;;;;;5080451;28;19932;-58
2024/02/26 09:45:08;;;;;;;;;;;25.30;43.80;;;;;;5085447;28;20627;-56
2024/02/26 09:47:39;;;;;;;;;;;25.20;43.50;;;;;;5079694;28;19928;-59
2024/02/26 09:50:13;;;;;;;;;;;25.10;42.90;;;;;;5078795;28;19936;-56
2024/02/26 09:52:42;;;;;;;;;;;25.00;43.20;;;;;;5064823;28;19928;-58
2024/02/26 09:55:10;;;;;;;;;;;24.50;42.50;;;;;;5084013;28;19932;-58
2024/02/26 09:57:39;;;;;;;;;;;23.80;42.80;;;;;;5085770;28;20004;-59
2024/02/26 10:00:08;;;;;;;;;;;23.10;43.20;;;;;;5079862;28;20378;-58
2024/02/26 10:02:39;;;;;;;;;;;22.30;43.60;;;;;;5081977;28;19947;-59
2024/02/26 10:05:08;;;;;;;;;;;21.70;43.90;;;;;;5077872;28;19935;-57
2024/02/26 10:07:36;;;;;;;;;;;21.10;44.80;;;;;;5086660;28;20610;-59
2024/02/26 10:10:04;;;;;;;;;;;20.70;45.20;;;;;;5087314;28;19939;-56
2024/02/26 10:12:33;;;;;;;;;;;20.40;45.20;;;;;;5076426;28;19946;-58
2024/02/26 10:15:01;;;;;;;;;;;20.00;45.70;;;;;;5088195;28;19985;-57
2024/02/26 10:17:30;;;;;;;;;;;19.90;46.20;;;;;;5082595;28;20023;-58
2024/02/26 10:20:11;;;;;;;;;;;19.70;46.00;;;;;;5088640;28;19928;-56
2024/02/26 10:22:39;;;;;;;;;;;19.60;46.40;;;;;;5078549;28;19924;-60
2024/02/26 10:25:07;;;;;;;;;;;19.50;46.50;;;;;;5083450;28;19928;-59
2024/02/26 10:27:36;;;;;;;;;;;19.40;46.50;;;;;;5077295;28;20020;-59
2024/02/26 10:30:05;;;;;;;;;;;19.40;46.90;;;;;;5080594;28;19939;-59
2024/02/26 10:32:33;;;;;;;;;;;19.50;46.80;;;;;;5081535;28;19923;-54
2024/02/26 10:35:02;;;;;;;;;;;19.60;47.20;;;;;;5081815;28;20483;-60
2024/02/26 10:37:33;;;;;;;;;;;19.90;47.50;;;;;;5086362;28;19924;-55
2024/02/26 10:40:01;;;;;;;;;;;20.10;47.30;;;;;;5087153;28;19924;-59
2024/02/26 10:42:29;;;;;;;;;;;20.30;47.40;;;;;;5083092;28;20362;-57
2024/02/26 10:44:58;;;;;;;;;;;20.60;47.30;;;;;;5074542;28;19970;-57
2024/02/26 10:47:27;;;;;;;;;;;20.80;47.40;;;;;;5079446;28;20020;-57
2024/02/26 10:49:55;;;;;;;;;;;20.80;46.80;;;;;;5088903;28;19934;-59
2024/02/26 10:52:25;;;;;;;;;;;20.80;46.80;;;;;;5080702;28;20752;-57
2024/02/26 10:54:57;;;;;;;;;;;20.60;46.50;;;;;;5088316;28;19924;-56
2024/02/26 10:57:32;;;;;;;;;;;20.50;46.30;;;;;;5073480;28;20028;-53
2024/02/26 11:00:01;;;;;;;;;;;20.30;46.20;;;;;;5082679;28;19932;-58
2024/02/26 11:02:29;;;;;;;;;;;20.30;46.60;;;;;;5077814;27;19924;-58
2024/02/26 11:04:58;;;;;;;;;;;20.30;46.90;;;;;;5084460;28;19927;-60
2024/02/26 11:07:27;;;;;;;;;;;20.30;47.10;;;;;;5077733;28;20491;-58
2024/02/26 11:09:57;;;;;;;;;;;20.40;47.10;;;;;;5072020;28;19985;-55
2024/02/26 11:12:25;;;;;;;;;;;20.30;45.90;;;;;;5080780;28;19971;-59
2024/02/26 11:14:56;;;;;;;;;;;20.10;45.40;;;;;;5085139;28;19928;-57
2024/02/26 11:17:26;;;;;;;;;;;20.00;45.70;;;;;;5071925;28;19931;-61
2024/02/26 11:19:57;;;;;;;;;;;19.80;45.40;;;;;;5083757;27;19932;-57
2024/02/26 11:22:27;;;;;;;;;;;19.70;45.80;;;;;;5057666;28;19942;-59
2024/02/26 11:24:57;;;;;;;;;;;19.70;46.20;;;;;;5078974;27;19935;-62
2024/02/26 11:27:29;;;;;;;;;;;19.80;46.50;;;;;;5062654;28;19936;-57
2024/02/26 11:30:01;;;;;;;;;;;19.90;46.70;;;;;;5081453;28;20544;-56
2024/02/26 11:32:31;;;;;;;;;;;20.00;46.70;;;;;;5075639;27;20022;-55
2024/02/26 11:34:59;;;;;;;;;;;20.00;46.80;;;;;;5079219;28;20344;-60
2024/02/26 11:37:28;;;;;;;;;;;20.10;46.90;;;;;;5079967;28;19934;-58
2024/02/26 11:40:00;;;;;;;;;;;20.20;46.80;;;;;;5078350;28;20398;-56
2024/02/26 11:42:28;;;;;;;;;;;20.10;46.60;;;;;;5080351;27;20000;-56
2024/02/26 11:45:00;;;;;;;;;;;20.10;47.10;;;;;;5084854;28;19975;-57
2024/02/26 11:47:29;;;;;;;;;;;20.00;46.70;;;;;;5078645;28;19928;-58
2024/02/26 11:49:57;;;;;;;;;;;20.10;46.80;;;;;;5081961;28;19928;-60
2024/02/26 11:52:25;;;;;;;;;;;20.20;47.20;;;;;;5069451;27;19928;-55
2024/02/26 11:54:54;;;;;;;;;;;20.40;47.20;;;;;;5075371;28;19932;-55
2024/02/26 11:57:24;;;;;;;;;;;20.80;47.30;;;;;;5082653;28;20736;-59
2024/02/26 11:59:53;;;;;;;;;;;21.20;47.30;;;;;;5078966;28;19940;-58
2024/02/26 12:02:45;;;;;;;;;;;21.30;46.40;;;;;;5075168;28;19924;-58
2024/02/26 12:05:15;;;;;;;;;;;21.30;45.90;;;;;;5078599;28;19928;-59
2024/02/26 12:07:49;;;;;;;;;;;21.00;45.20;;;;;;5071900;28;20221;-62
2024/02/26 12:10:24;;;;;;;;;;;20.70;45.60;;;;;;5071520;28;19938;-59
2024/02/26 12:13:02;;;;;;;;;;;20.60;45.90;;;;;;5067469;28;19935;-59
2024/02/26 12:15:33;;;;;;;;;;;20.40;46.20;;;;;;5071934;28;19939;-60
2024/02/26 12:18:02;;;;;;;;;;;20.40;46.60;;;;;;5071983;28;20019;-62
2024/02/26 12:20:33;;;;;;;;;;;20.40;46.70;;;;;;5072366;28;20321;-60
2024/02/26 12:23:01;;;;;;;;;;;20.40;46.50;;;;;;5064199;28;20889;-59
2024/02/26 12:25:30;;;;;;;;;;;20.40;46.70;;;;;;5072896;28;20037;-61
2024/02/26 12:27:58;;;;;;;;;;;20.40;46.10;;;;;;5071941;28;19927;-54
2024/02/26 12:30:29;;;;;;;;;;;20.30;46.40;;;;;;5069553;28;19932;-58
2024/02/26 12:33:01;;;;;;;;;;;20.30;46.70;;;;;;5058052;28;19938;-57
2024/02/26 12:35:31;;;;;;;;;;;20.40;46.80;;;;;;5050588;28;20044;-60
2024/02/26 12:38:00;;;;;;;;;;;20.40;46.90;;;;;;5070418;28;19953;-56
2024/02/26 12:40:29;;;;;;;;;;;20.50;46.90;;;;;;5069603;28;19971;-54
2024/02/26 12:42:57;;;;;;;;;;;20.60;47.40;;;;;;5066781;28;19931;-58
2024/02/26 12:45:31;;;;;;;;;;;20.50;47.10;;;;;;5070299;28;20322;-52
2024/02/26 12:48:00;;;;;;;;;;;20.50;46.90;;;;;;5074698;28;19935;-52
2024/02/26 12:50:29;;;;;;;;;;;20.60;47.00;;;;;;5069284;28;20404;-53
2024/02/26 12:52:57;;;;;;;;;;;20.60;46.80;;;;;;5070320;28;19927;-55
2024/02/26 12:55:26;;;;;;;;;;;20.60;46.80;;;;;;5066655;28;19932;-55
2024/02/26 12:57:54;;;;;;;;;;;20.60;47.20;;;;;;5071616;28;19962;-53
2024/02/26 13:00:24;;;;;;;;;;;20.50;46.90;;;;;;5070640;28;20396;-53
2024/02/26 13:02:55;;;;;;;;;;;20.60;46.60;;;;;;5070267;28;20772;-53
2024/02/26 13:05:24;;;;;;;;;;;20.50;46.40;;;;;;5071999;28;19959;-52
2024/02/26 13:07:52;;;;;;;;;;;20.50;46.90;;;;;;5066931;28;20349;-52
2024/02/26 13:10:21;;;;;;;;;;;20.60;47.00;;;;;;5071211;28;20294;-53
2024/02/26 13:12:50;;;;;;;;;;;20.70;47.20;;;;;;5066106;28;19932;-53
2024/02/26 13:15:22;;;;;;;;;;;20.80;47.20;;;;;;5067799;28;19936;-55
2024/02/26 13:17:51;;;;;;;;;;;20.90;46.60;;;;;;5065678;28;19939;-55
2024/02/26 13:20:28;;;;;;;;;;;20.80;46.50;;;;;;5069811;28;19942;-52
2024/02/26 13:23:04;;;;;;;;;;;20.60;46.70;;;;;;5075620;28;20013;-50
2024/02/26 13:25:33;;;;;;;;;;;20.50;46.90;;;;;;5064775;27;20405;-55
2024/02/26 13:28:13;;;;;;;;;;;20.40;47.00;;;;;;5076208;28;19928;-53
2024/02/26 13:30:42;;;;;;;;;;;20.40;47.00;;;;;;5072673;28;19928;-53
2024/02/26 13:33:11;;;;;;;;;;;20.30;47.30;;;;;;5071729;28;20023;-49
2024/02/26 13:35:41;;;;;;;;;;;20.30;47.20;;;;;;5058944;28;19993;-51
2024/02/26 13:38:09;;;;;;;;;;;20.20;47.20;;;;;;5075640;28;19928;-52
2024/02/26 13:40:37;;;;;;;;;;;20.30;47.40;;;;;;5074012;28;20018;-54
2024/02/26 13:43:05;;;;;;;;;;;20.30;47.50;;;;;;5074720;28;20040;-56
2024/02/26 13:45:34;;;;;;;;;;;20.30;47.50;;;;;;5066012;28;20058;-52
2024/02/26 13:48:06;;;;;;;;;;;20.40;47.50;;;;;;5064209;28;20046;-52
2024/02/26 13:50:34;;;;;;;;;;;20.40;47.40;;;;;;5073129;28;20553;-52
2024/02/26 13:53:04;;;;;;;;;;;20.40;47.20;;;;;;5073785;28;19961;-52
2024/02/26 13:55:33;;;;;;;;;;;20.50;47.40;;;;;;5071532;27;19938;-53
2024/02/26 13:58:02;;;;;;;;;;;20.60;47.60;;;;;;5073009;28;20349;-50
2024/02/26 14:00:33;;;;;;;;;;;20.80;47.70;;;;;;5087781;28;19928;-53
2024/02/26 14:03:02;;;;;;;;;;;21.00;47.60;;;;;;5078279;28;20022;-55
2024/02/26 14:05:31;;;;;;;;;;;21.20;47.60;;;;;;5072508;27;19924;-58
2024/02/26 14:08:00;;;;;;;;;;;21.30;47.40;;;;;;5081229;28;19936;-57
2024/02/26 14:10:31;;;;;;;;;;;21.40;47.50;;;;;;5071705;28;19928;-55
2024/02/26 14:13:00;;;;;;;;;;;21.40;47.30;;;;;;5054849;28;19946;-54
2024/02/26 14:15:30;;;;;;;;;;;21.40;47.20;;;;;;5086078;28;20378;-56
2024/02/26 14:18:02;;;;;;;;;;;21.40;47.30;;;;;;5073445;28;19928;-54
2024/02/26 14:20:31;;;;;;;;;;;21.40;47.30;;;;;;5084809;27;20519;-58
2024/02/26 14:22:59;;;;;;;;;;;21.30;47.20;;;;;;5084616;28;19935;-54
2024/02/26 14:25:28;;;;;;;;;;;21.30;47.30;;;;;;5075118;27;19932;-56
2024/02/26 14:28:00;;;;;;;;;;;21.20;47.20;;;;;;5075653;27;19931;-59
2024/02/26 14:30:28;;;;;;;;;;;21.00;47.10;;;;;;5081779;27;19950;-59
2024/02/26 14:32:56;;;;;;;;;;;20.90;47.30;;;;;;5079332;27;19931;-59